createdAt,value
2022-09-29T00:00:53.692Z,979.84
2022-09-29T00:01:53.858Z,979.80
2022-09-29T00:02:53.843Z,979.85
2022-09-29T00:03:53.786Z,979.80
2022-09-29T00:04:53.892Z,979.82
2022-09-29T00:05:53.767Z,979.88
2022-09-29T00:06:53.810Z,979.91
2022-09-29T00:07:53.748Z,979.86
2022-09-29T00:08:53.777Z,979.87
2022-09-29T00:09:54.597Z,979.95
2022-09-29T00:10:54.107Z,979.86
2022-09-29T00:11:53.698Z,979.89
2022-09-29T00:12:53.704Z,979.93
2022-09-29T00:13:53.716Z,979.95
2022-09-29T00:14:53.682Z,979.89
2022-09-29T00:15:53.674Z,979.89
2022-09-29T00:16:53.627Z,979.94
2022-09-29T00:18:20.775Z,979.88
2022-09-29T00:18:55.580Z,980.01
2022-09-29T00:19:53.550Z,979.97
2022-09-29T00:20:53.639Z,979.96
2022-09-29T00:21:53.673Z,979.99
2022-09-29T00:22:53.631Z,979.99
2022-09-29T00:23:53.629Z,980.01
2022-09-29T00:24:54.198Z,980.08
2022-09-29T00:25:53.629Z,980.03
2022-09-29T00:26:53.631Z,979.97
2022-09-29T00:27:53.650Z,979.99
2022-09-29T00:28:53.620Z,979.96
2022-09-29T00:29:53.648Z,980.00
2022-09-29T00:30:53.593Z,979.98
2022-09-29T00:31:53.606Z,980.00
2022-09-29T00:32:53.611Z,979.98
2022-09-29T00:33:53.530Z,979.99
2022-09-29T00:34:54.564Z,980.05
2022-09-29T00:35:53.486Z,980.02
2022-09-29T00:36:53.463Z,980.00
2022-09-29T00:37:53.593Z,980.06
2022-09-29T00:38:53.462Z,980.02
2022-09-29T00:39:53.533Z,980.03
2022-09-29T00:40:53.535Z,980.07
2022-09-29T00:41:53.533Z,980.06
2022-09-29T00:42:53.496Z,980.11
2022-09-29T00:43:53.550Z,980.09
2022-09-29T00:44:53.474Z,980.02
2022-09-29T00:45:53.567Z,980.04
2022-09-29T00:46:53.473Z,980.04
2022-09-29T00:47:53.454Z,980.00
2022-09-29T00:48:54.425Z,980.03
2022-09-29T00:49:53.449Z,979.97
2022-09-29T00:50:53.506Z,979.96
2022-09-29T00:51:53.513Z,979.96
2022-09-29T00:52:54.341Z,979.92
2022-09-29T00:53:53.363Z,979.95
2022-09-29T00:54:53.326Z,979.97
2022-09-29T00:55:53.335Z,979.97
2022-09-29T00:56:53.372Z,979.98
2022-09-29T00:57:53.280Z,980.01
2022-09-29T00:58:53.297Z,979.99
2022-09-29T00:59:53.332Z,980.02
2022-09-29T01:00:53.382Z,979.94
2022-09-29T01:01:53.400Z,979.96
2022-09-29T01:02:53.358Z,980.02
2022-09-29T01:03:53.317Z,979.89
2022-09-29T01:04:53.392Z,979.96
2022-09-29T01:05:53.331Z,979.98
2022-09-29T01:06:53.346Z,980.07
2022-09-29T01:07:53.329Z,979.98
2022-09-29T01:08:53.298Z,980.13
2022-09-29T01:09:53.327Z,980.06
2022-09-29T01:10:53.719Z,980.03
2022-09-29T01:11:53.316Z,980.05
2022-09-29T01:12:53.281Z,980.04
2022-09-29T01:13:53.368Z,980.07
2022-09-29T01:14:53.214Z,980.05
2022-09-29T01:15:53.243Z,980.01
2022-09-29T01:16:53.175Z,980.08
2022-09-29T01:17:53.158Z,980.11
2022-09-29T01:18:53.151Z,980.01
2022-09-29T01:19:53.169Z,980.10
2022-09-29T01:20:53.113Z,980.06
2022-09-29T01:21:53.198Z,980.07
2022-09-29T01:22:53.112Z,980.08
2022-09-29T01:23:53.204Z,980.09
2022-09-29T01:24:53.181Z,980.06
2022-09-29T01:25:55.038Z,980.04
2022-09-29T01:26:53.174Z,980.10
2022-09-29T01:27:53.153Z,980.15
2022-09-29T01:28:53.151Z,980.17
2022-09-29T01:29:53.157Z,980.10
2022-09-29T01:30:53.182Z,980.13
2022-09-29T01:31:53.181Z,980.18
2022-09-29T01:32:53.238Z,980.17
2022-09-29T01:33:53.186Z,980.17
2022-09-29T01:34:53.158Z,980.22
2022-09-29T01:35:53.120Z,980.19
2022-09-29T01:36:53.261Z,980.18
2022-09-29T01:37:53.137Z,980.16
2022-09-29T01:38:53.024Z,980.19
2022-09-29T01:39:53.035Z,980.17
2022-09-29T01:40:53.023Z,980.25
2022-09-29T01:41:53.054Z,980.13
2022-09-29T01:42:53.006Z,980.19
2022-09-29T01:43:53.039Z,980.25
2022-09-29T01:44:52.997Z,980.19
2022-09-29T01:45:52.999Z,980.20
2022-09-29T01:46:53.060Z,980.22
2022-09-29T01:47:53.032Z,980.17
2022-09-29T01:48:53.074Z,980.19
2022-09-29T01:49:53.062Z,980.21
2022-09-29T01:50:53.016Z,980.17
2022-09-29T01:51:52.985Z,980.20
2022-09-29T01:52:52.996Z,980.16
2022-09-29T01:53:53.023Z,980.22
2022-09-29T01:54:53.030Z,980.19
2022-09-29T01:55:53.003Z,980.18
2022-09-29T01:56:53.016Z,980.20
2022-09-29T01:57:52.998Z,980.16
2022-09-29T01:58:52.948Z,980.22
2022-09-29T01:59:53.052Z,980.24
2022-09-29T02:00:53.003Z,980.21
2022-09-29T02:01:56.842Z,980.27
2022-09-29T02:02:53.963Z,980.26
2022-09-29T02:03:52.968Z,980.23
2022-09-29T02:04:52.849Z,980.22
2022-09-29T02:05:52.871Z,980.17
2022-09-29T02:06:52.843Z,980.28
2022-09-29T02:07:52.807Z,980.22
2022-09-29T02:08:52.808Z,980.16
2022-09-29T02:09:52.827Z,980.28
2022-09-29T02:10:53.106Z,980.25
2022-09-29T02:11:53.789Z,980.21
2022-09-29T02:12:52.769Z,980.29
2022-09-29T02:13:52.879Z,980.25
2022-09-29T02:14:52.855Z,980.15
2022-09-29T02:15:52.928Z,980.27
2022-09-29T02:16:52.920Z,980.30
2022-09-29T02:17:52.825Z,980.20
2022-09-29T02:18:57.470Z,980.25
2022-09-29T02:19:54.849Z,980.28
2022-09-29T02:20:52.847Z,980.24
2022-09-29T02:21:52.829Z,980.31
2022-09-29T02:22:52.835Z,980.31
2022-09-29T02:23:52.794Z,980.35
2022-09-29T02:24:52.868Z,980.37
2022-09-29T02:25:52.794Z,980.43
2022-09-29T02:26:53.847Z,980.39
2022-09-29T02:27:52.768Z,980.32
2022-09-29T02:28:52.774Z,980.41
2022-09-29T02:29:52.786Z,980.32
2022-09-29T02:30:52.776Z,980.31
2022-09-29T02:31:52.757Z,980.29
2022-09-29T02:32:52.673Z,980.26
2022-09-29T02:33:52.718Z,980.24
2022-09-29T02:34:52.611Z,980.26
2022-09-29T02:35:52.629Z,980.22
2022-09-29T02:36:52.613Z,980.29
2022-09-29T02:37:52.653Z,980.32
2022-09-29T02:38:52.617Z,980.29
2022-09-29T02:39:52.691Z,980.27
2022-09-29T02:40:52.743Z,980.32
2022-09-29T02:41:52.693Z,980.29
2022-09-29T02:42:52.731Z,980.29
2022-09-29T02:43:52.682Z,980.29
2022-09-29T02:44:52.645Z,980.30
2022-09-29T02:45:52.774Z,980.21
2022-09-29T02:46:52.658Z,980.32
2022-09-29T02:47:52.686Z,980.31
2022-09-29T02:48:52.652Z,980.32
2022-09-29T02:49:52.608Z,980.38
2022-09-29T02:50:52.632Z,980.38
2022-09-29T02:51:52.618Z,980.39
2022-09-29T02:52:52.614Z,980.35
2022-09-29T02:53:52.567Z,980.42
2022-09-29T02:54:52.547Z,980.37
2022-09-29T02:55:52.500Z,980.41
2022-09-29T02:56:52.479Z,980.39
2022-09-29T02:57:52.529Z,980.37
2022-09-29T02:58:52.482Z,980.35
2022-09-29T02:59:52.616Z,980.45
2022-09-29T03:00:52.553Z,980.46
2022-09-29T03:01:52.544Z,980.43
2022-09-29T03:02:52.524Z,980.38
2022-09-29T03:03:52.558Z,980.41
2022-09-29T03:04:52.589Z,980.45
2022-09-29T03:05:52.531Z,980.42
2022-09-29T03:06:52.538Z,980.43
2022-09-29T03:07:52.494Z,980.41
2022-09-29T03:08:52.538Z,980.48
2022-09-29T03:09:52.514Z,980.50
2022-09-29T03:10:52.609Z,980.47
2022-09-29T03:11:53.469Z,980.52
2022-09-29T03:12:52.455Z,980.46
2022-09-29T03:13:52.366Z,980.40
2022-09-29T03:14:52.380Z,980.52
2022-09-29T03:15:52.788Z,980.42
2022-09-29T03:16:52.419Z,980.47
2022-09-29T03:17:52.333Z,980.42
2022-09-29T03:18:52.354Z,980.48
2022-09-29T03:19:52.333Z,980.44
2022-09-29T03:20:52.308Z,980.47
2022-09-29T03:21:52.491Z,980.40
2022-09-29T03:22:52.386Z,980.44
2022-09-29T03:23:57.368Z,980.45
2022-09-29T03:24:54.295Z,980.39
2022-09-29T03:25:52.386Z,980.46
2022-09-29T03:26:52.392Z,980.53
2022-09-29T03:27:52.346Z,980.48
2022-09-29T03:28:52.343Z,980.49
2022-09-29T03:29:52.385Z,980.48
2022-09-29T03:30:52.351Z,980.48
2022-09-29T03:31:52.387Z,980.51
2022-09-29T03:32:52.376Z,980.47
2022-09-29T03:33:52.351Z,980.51
2022-09-29T03:34:52.307Z,980.47
2022-09-29T03:35:52.266Z,980.52
2022-09-29T03:36:52.217Z,980.57
2022-09-29T03:37:52.305Z,980.58
2022-09-29T03:38:52.216Z,980.51
2022-09-29T03:39:52.202Z,980.55
2022-09-29T03:40:52.372Z,980.57
2022-09-29T03:41:52.172Z,980.59
2022-09-29T03:42:52.136Z,980.57
2022-09-29T03:43:52.223Z,980.56
2022-09-29T03:44:52.161Z,980.55
2022-09-29T03:45:52.254Z,980.57
2022-09-29T03:46:52.224Z,980.63
2022-09-29T03:47:52.211Z,980.58
2022-09-29T03:48:53.260Z,980.65
2022-09-29T03:49:52.202Z,980.58
2022-09-29T03:50:52.183Z,980.57
2022-09-29T03:51:52.208Z,980.60
2022-09-29T03:52:52.214Z,980.59
2022-09-29T03:53:52.193Z,980.66
2022-09-29T03:54:52.277Z,980.62
2022-09-29T03:55:52.156Z,980.62
2022-09-29T03:56:52.211Z,980.68
2022-09-29T03:57:53.175Z,980.66
2022-09-29T03:58:52.112Z,980.61
2022-09-29T03:59:52.090Z,980.68
2022-09-29T04:00:52.195Z,980.67
2022-09-29T04:01:52.076Z,980.69
2022-09-29T04:02:52.113Z,980.67
2022-09-29T04:03:52.124Z,980.65
2022-09-29T04:04:52.127Z,980.66
2022-09-29T04:05:52.086Z,980.69
2022-09-29T04:06:52.063Z,980.68
2022-09-29T04:07:52.092Z,980.64
2022-09-29T04:08:52.055Z,980.65
2022-09-29T04:09:52.074Z,980.65
2022-09-29T04:10:53.091Z,980.64
2022-09-29T04:11:52.075Z,980.66
2022-09-29T04:12:52.049Z,980.72
2022-09-29T04:13:52.075Z,980.65
2022-09-29T04:15:08.242Z,980.65
2022-09-29T04:15:52.111Z,980.67
2022-09-29T04:16:51.963Z,980.69
2022-09-29T04:17:52.044Z,980.70
2022-09-29T04:18:51.937Z,980.75
2022-09-29T04:19:51.930Z,980.63
2022-09-29T04:20:51.919Z,980.68
2022-09-29T04:21:52.238Z,980.65
2022-09-29T04:22:51.891Z,980.66
2022-09-29T04:23:51.968Z,980.66
2022-09-29T04:24:51.975Z,980.59
2022-09-29T04:25:51.961Z,980.65
2022-09-29T04:26:51.979Z,980.62
2022-09-29T04:27:51.955Z,980.68
2022-09-29T04:28:51.915Z,980.64
2022-09-29T04:29:51.932Z,980.72
2022-09-29T04:30:51.933Z,980.74
2022-09-29T04:31:51.978Z,980.72
2022-09-29T04:32:51.963Z,980.72
2022-09-29T04:33:51.933Z,980.78
2022-09-29T04:34:51.917Z,980.74
2022-09-29T04:35:51.884Z,980.74
2022-09-29T04:36:51.892Z,980.80
2022-09-29T04:37:51.855Z,980.83
2022-09-29T04:38:51.770Z,980.79
2022-09-29T04:39:51.787Z,980.79
2022-09-29T04:40:52.007Z,980.80
2022-09-29T04:41:51.867Z,980.82
2022-09-29T04:42:51.953Z,980.80
2022-09-29T04:43:51.824Z,980.79
2022-09-29T04:44:51.834Z,980.86
2022-09-29T04:45:51.882Z,980.82
2022-09-29T04:46:51.801Z,980.87
2022-09-29T04:47:51.786Z,980.82
2022-09-29T04:48:51.846Z,980.82
2022-09-29T04:49:51.814Z,980.82
2022-09-29T04:50:51.773Z,980.81
2022-09-29T04:51:51.962Z,980.81
2022-09-29T04:52:51.772Z,980.77
2022-09-29T04:53:51.799Z,980.73
2022-09-29T04:54:51.773Z,980.70
2022-09-29T04:55:51.996Z,980.74
2022-09-29T04:56:51.675Z,980.89
2022-09-29T04:57:51.620Z,980.81
2022-09-29T04:58:51.730Z,980.78
2022-09-29T04:59:51.753Z,980.83
2022-09-29T05:00:51.809Z,980.85
2022-09-29T05:01:51.791Z,980.78
2022-09-29T05:02:51.701Z,980.79
2022-09-29T05:03:51.758Z,980.82
2022-09-29T05:04:51.734Z,980.84
2022-09-29T05:05:51.721Z,980.87
2022-09-29T05:06:51.710Z,980.84
2022-09-29T05:07:51.725Z,980.85
2022-09-29T05:08:51.697Z,980.90
2022-09-29T05:09:51.688Z,980.83
2022-09-29T05:10:51.755Z,980.84
2022-09-29T05:11:51.622Z,980.84
2022-09-29T05:12:51.663Z,980.78
2022-09-29T05:13:51.673Z,980.82
2022-09-29T05:14:51.660Z,980.82
2022-09-29T05:15:51.570Z,980.88
2022-09-29T05:16:51.500Z,980.87
2022-09-29T05:17:51.611Z,980.87
2022-09-29T05:18:51.502Z,980.80
2022-09-29T05:19:51.552Z,980.89
2022-09-29T05:21:10.664Z,980.88
2022-09-29T05:21:53.749Z,980.89
2022-09-29T05:22:51.543Z,980.90
2022-09-29T05:23:51.569Z,980.99
2022-09-29T05:24:51.624Z,980.99
2022-09-29T05:25:51.575Z,980.97
2022-09-29T05:26:56.114Z,980.95
2022-09-29T05:27:53.574Z,981.01
2022-09-29T05:28:51.584Z,981.04
2022-09-29T05:29:51.506Z,981.00
2022-09-29T05:30:51.421Z,980.99
2022-09-29T05:31:51.426Z,981.08
2022-09-29T05:32:55.614Z,980.98
2022-09-29T05:33:52.443Z,981.07
2022-09-29T05:34:51.521Z,981.06
2022-09-29T05:35:51.469Z,981.11
2022-09-29T05:36:51.509Z,981.13
2022-09-29T05:37:51.520Z,981.04
2022-09-29T05:38:51.456Z,981.14
2022-09-29T05:39:51.444Z,981.08
2022-09-29T05:40:51.476Z,980.99
2022-09-29T05:41:51.500Z,981.03
2022-09-29T05:42:51.469Z,981.05
2022-09-29T05:43:51.450Z,981.11
2022-09-29T05:44:51.411Z,981.06
2022-09-29T05:45:51.432Z,981.05
2022-09-29T05:46:51.343Z,981.03
2022-09-29T05:47:51.404Z,981.03
2022-09-29T05:48:51.477Z,981.05
2022-09-29T05:49:51.576Z,981.03
2022-09-29T05:50:51.311Z,981.03
2022-09-29T05:51:51.301Z,980.98
2022-09-29T05:52:51.310Z,981.08
2022-09-29T05:53:51.517Z,981.09
2022-09-29T05:54:51.276Z,981.04
2022-09-29T05:55:51.270Z,981.05
2022-09-29T05:56:51.359Z,981.08
2022-09-29T05:57:51.351Z,981.06
2022-09-29T05:58:51.337Z,981.09
2022-09-29T05:59:52.334Z,981.01
2022-09-29T06:00:51.326Z,981.12
2022-09-29T06:01:51.363Z,981.07
2022-09-29T06:02:51.273Z,981.09
2022-09-29T06:03:51.310Z,981.07
2022-09-29T06:04:51.307Z,981.12
2022-09-29T06:05:51.294Z,981.17
2022-09-29T06:06:51.277Z,981.15
2022-09-29T06:07:51.242Z,981.14
2022-09-29T06:08:51.245Z,981.09
2022-09-29T06:09:51.257Z,981.18
2022-09-29T06:10:51.339Z,981.17
2022-09-29T06:11:51.240Z,981.13
2022-09-29T06:12:51.260Z,981.14
2022-09-29T06:13:51.124Z,981.18
2022-09-29T06:14:51.236Z,981.14
2022-09-29T06:15:52.150Z,981.13
2022-09-29T06:16:51.188Z,981.13
2022-09-29T06:17:51.201Z,981.13
2022-09-29T06:18:51.196Z,981.17
2022-09-29T06:19:51.177Z,981.19
2022-09-29T06:20:51.216Z,981.19
2022-09-29T06:21:51.254Z,981.20
2022-09-29T06:22:51.205Z,981.21
2022-09-29T06:23:51.151Z,981.23
2022-09-29T06:24:51.159Z,981.22
2022-09-29T06:25:51.723Z,981.25
2022-09-29T06:26:51.125Z,981.20
2022-09-29T06:27:51.128Z,981.24
2022-09-29T06:28:51.086Z,981.32
2022-09-29T06:29:51.121Z,981.28
2022-09-29T06:30:51.129Z,981.27
2022-09-29T06:31:51.166Z,981.27
2022-09-29T06:32:51.020Z,981.29
2022-09-29T06:33:50.993Z,981.30
2022-09-29T06:34:51.034Z,981.27
2022-09-29T06:35:50.992Z,981.34
2022-09-29T06:36:51.053Z,981.34
2022-09-29T06:37:51.026Z,981.28
2022-09-29T06:38:50.985Z,981.25
2022-09-29T06:39:50.978Z,981.26
2022-09-29T06:40:51.090Z,981.25
2022-09-29T06:41:50.969Z,981.28
2022-09-29T06:42:50.974Z,981.17
2022-09-29T06:43:50.928Z,981.30
2022-09-29T06:44:51.042Z,981.24
2022-09-29T06:45:51.060Z,981.20
2022-09-29T06:46:50.982Z,981.29
2022-09-29T06:47:51.007Z,981.28
2022-09-29T06:48:51.027Z,981.33
2022-09-29T06:50:00.642Z,981.29
2022-09-29T06:51:04.343Z,981.31
2022-09-29T06:51:52.898Z,981.27
2022-09-29T06:53:03.349Z,981.32
2022-09-29T06:53:59.945Z,981.27
2022-09-29T06:54:51.994Z,981.32
2022-09-29T06:55:51.011Z,981.25
2022-09-29T06:56:50.979Z,981.31
2022-09-29T06:57:50.967Z,981.35
2022-09-29T06:58:51.028Z,981.29
2022-09-29T06:59:50.831Z,981.37
2022-09-29T07:00:51.013Z,981.32
2022-09-29T07:01:51.601Z,981.37
2022-09-29T07:02:51.834Z,981.28
2022-09-29T07:03:50.792Z,981.30
2022-09-29T07:04:50.964Z,981.34
2022-09-29T07:06:08.462Z,981.37
2022-09-29T07:06:52.912Z,981.39
2022-09-29T07:07:52.678Z,981.37
2022-09-29T07:08:51.767Z,981.37
2022-09-29T07:09:50.894Z,981.41
2022-09-29T07:10:50.847Z,981.41
2022-09-29T07:11:50.945Z,981.42
2022-09-29T07:12:50.851Z,981.43
2022-09-29T07:13:54.156Z,981.38
2022-09-29T07:14:51.892Z,981.39
2022-09-29T07:15:50.837Z,981.38
2022-09-29T07:16:50.879Z,981.48
2022-09-29T07:17:50.792Z,981.41
2022-09-29T07:18:50.813Z,981.42
2022-09-29T07:19:50.846Z,981.44
2022-09-29T07:20:50.825Z,981.47
2022-09-29T07:21:50.827Z,981.48
2022-09-29T07:22:50.796Z,981.51
2022-09-29T07:23:50.643Z,981.46
2022-09-29T07:24:50.662Z,981.40
2022-09-29T07:25:52.434Z,981.42
2022-09-29T07:26:51.761Z,981.51
2022-09-29T07:27:50.820Z,981.47
2022-09-29T07:28:50.794Z,981.41
2022-09-29T07:30:02.253Z,981.55
2022-09-29T07:30:53.704Z,981.51
2022-09-29T07:31:52.496Z,981.53
2022-09-29T07:32:59.877Z,981.48
2022-09-29T07:33:52.589Z,981.52
2022-09-29T07:34:50.779Z,981.62
2022-09-29T07:35:50.694Z,981.50
2022-09-29T07:36:50.783Z,981.46
2022-09-29T07:37:50.676Z,981.50
2022-09-29T07:38:50.768Z,981.43
2022-09-29T07:39:50.671Z,981.48
2022-09-29T07:40:50.803Z,981.57
2022-09-29T07:41:51.775Z,981.62
2022-09-29T07:42:50.639Z,981.62
2022-09-29T07:43:50.643Z,981.63
2022-09-29T07:44:52.508Z,981.68
2022-09-29T07:45:51.716Z,981.65
2022-09-29T07:46:50.595Z,981.67
2022-09-29T07:47:50.556Z,981.61
2022-09-29T07:48:50.673Z,981.54
2022-09-29T07:49:50.485Z,981.61
2022-09-29T07:50:51.449Z,981.66
2022-09-29T07:51:50.476Z,981.65
2022-09-29T07:52:50.616Z,981.66
2022-09-29T07:53:50.564Z,981.69
2022-09-29T07:54:50.538Z,981.66
2022-09-29T07:55:51.424Z,981.59
2022-09-29T07:56:50.541Z,981.64
2022-09-29T07:57:50.566Z,981.66
2022-09-29T07:58:50.564Z,981.62
2022-09-29T07:59:53.280Z,981.71
2022-09-29T08:00:51.517Z,981.69
2022-09-29T08:01:50.536Z,981.65
2022-09-29T08:02:50.505Z,981.72
2022-09-29T08:03:50.491Z,981.70
2022-09-29T08:04:50.485Z,981.78
2022-09-29T08:05:50.470Z,981.71
2022-09-29T08:06:50.503Z,981.70
2022-09-29T08:07:50.470Z,981.72
2022-09-29T08:09:02.322Z,981.75
2022-09-29T08:09:52.532Z,981.68
2022-09-29T08:10:53.715Z,981.70
2022-09-29T08:12:04.121Z,981.78
2022-09-29T08:12:52.309Z,981.81
2022-09-29T08:13:50.637Z,981.86
2022-09-29T08:14:50.434Z,981.76
2022-09-29T08:15:50.427Z,981.78
2022-09-29T08:16:50.443Z,981.76
2022-09-29T08:17:50.411Z,981.78
2022-09-29T08:18:50.393Z,981.78
2022-09-29T08:19:50.394Z,981.71
2022-09-29T08:20:50.449Z,981.76
2022-09-29T08:21:50.377Z,981.83
2022-09-29T08:22:50.364Z,981.87
2022-09-29T08:23:50.415Z,981.91
2022-09-29T08:24:50.340Z,981.85
2022-09-29T08:25:59.154Z,981.91
2022-09-29T08:26:52.349Z,981.94
2022-09-29T08:27:55.325Z,981.96
2022-09-29T08:29:02.064Z,981.93
2022-09-29T08:29:52.311Z,982.00
2022-09-29T08:30:50.197Z,981.95
2022-09-29T08:31:50.274Z,981.96
2022-09-29T08:32:50.189Z,981.93
2022-09-29T08:33:50.302Z,981.94
2022-09-29T08:34:50.150Z,981.97
2022-09-29T08:35:50.188Z,981.93
2022-09-29T08:36:50.178Z,981.96
2022-09-29T08:37:50.163Z,981.99
2022-09-29T08:38:50.220Z,981.96
2022-09-29T08:39:50.224Z,981.95
2022-09-29T08:40:50.619Z,981.94
2022-09-29T08:41:50.276Z,982.00
2022-09-29T08:42:50.209Z,981.96
2022-09-29T08:43:50.199Z,981.97
2022-09-29T08:44:50.216Z,982.04
2022-09-29T08:45:59.962Z,982.04
2022-09-29T08:47:02.889Z,982.03
2022-09-29T08:47:52.146Z,982.01
2022-09-29T08:48:58.007Z,982.07
2022-09-29T08:49:52.071Z,982.04
2022-09-29T08:50:50.147Z,982.03
2022-09-29T08:51:50.169Z,982.03
2022-09-29T08:52:52.558Z,982.06
2022-09-29T08:54:01.921Z,982.04
2022-09-29T08:54:52.370Z,982.00
2022-09-29T08:55:50.102Z,982.03
2022-09-29T08:56:50.114Z,982.08
2022-09-29T08:57:50.185Z,982.02
2022-09-29T08:58:50.070Z,982.04
2022-09-29T08:59:50.149Z,982.08
2022-09-29T09:00:50.132Z,982.10
2022-09-29T09:01:50.941Z,982.10
2022-09-29T09:02:54.408Z,982.12
2022-09-29T09:03:52.043Z,982.03
2022-09-29T09:04:50.030Z,982.09
2022-09-29T09:05:50.057Z,982.08
2022-09-29T09:06:50.037Z,982.12
2022-09-29T09:07:50.044Z,982.10
2022-09-29T09:08:50.157Z,982.13
2022-09-29T09:09:49.995Z,982.15
2022-09-29T09:10:50.020Z,982.14
2022-09-29T09:11:50.027Z,982.09
2022-09-29T09:12:50.059Z,982.08
2022-09-29T09:13:50.023Z,982.15
2022-09-29T09:14:50.027Z,982.14
2022-09-29T09:15:49.986Z,982.14
2022-09-29T09:16:50.060Z,982.16
2022-09-29T09:17:50.006Z,982.18
2022-09-29T09:18:49.889Z,982.16
2022-09-29T09:19:49.914Z,982.15
2022-09-29T09:20:50.054Z,982.14
2022-09-29T09:21:49.912Z,982.19
2022-09-29T09:22:49.994Z,982.20
2022-09-29T09:23:49.899Z,982.20
2022-09-29T09:24:49.925Z,982.21
2022-09-29T09:25:49.925Z,982.22
2022-09-29T09:26:49.884Z,982.20
2022-09-29T09:27:49.887Z,982.18
2022-09-29T09:28:49.871Z,982.19
2022-09-29T09:29:49.887Z,982.20
2022-09-29T09:30:49.919Z,982.18
2022-09-29T09:31:49.899Z,982.13
2022-09-29T09:32:49.877Z,982.15
2022-09-29T09:34:01.155Z,982.14
2022-09-29T09:34:51.854Z,982.09
2022-09-29T09:35:57.694Z,982.15
2022-09-29T09:37:04.406Z,982.17
2022-09-29T09:37:51.849Z,982.15
2022-09-29T09:38:49.828Z,982.21
2022-09-29T09:39:49.886Z,982.15
2022-09-29T09:40:49.827Z,982.13
2022-09-29T09:41:49.708Z,982.20
2022-09-29T09:42:49.753Z,982.23
2022-09-29T09:43:49.965Z,982.27
2022-09-29T09:44:49.810Z,982.25
2022-09-29T09:45:49.915Z,982.19
2022-09-29T09:46:50.779Z,982.26
2022-09-29T09:47:49.821Z,982.25
2022-09-29T09:48:49.786Z,982.28
2022-09-29T09:49:49.759Z,982.19
2022-09-29T09:50:49.751Z,982.16
2022-09-29T09:51:49.933Z,982.23
2022-09-29T09:52:49.796Z,982.19
2022-09-29T09:53:49.800Z,982.17
2022-09-29T09:54:49.726Z,982.16
2022-09-29T09:55:49.746Z,982.20
2022-09-29T09:56:49.707Z,982.11
2022-09-29T09:57:49.588Z,982.21
2022-09-29T09:58:49.601Z,982.14
2022-09-29T09:59:52.785Z,982.14
2022-09-29T10:00:50.700Z,982.10
2022-09-29T10:01:49.559Z,982.18
2022-09-29T10:02:49.718Z,982.19
2022-09-29T10:03:49.674Z,982.17
2022-09-29T10:04:49.654Z,982.14
2022-09-29T10:05:49.617Z,982.11
2022-09-29T10:06:49.642Z,982.12
2022-09-29T10:07:49.632Z,982.13
2022-09-29T10:08:49.684Z,982.14
2022-09-29T10:09:49.719Z,982.13
2022-09-29T10:10:58.190Z,982.11
2022-09-29T10:11:51.628Z,982.10
2022-09-29T10:12:49.604Z,982.05
2022-09-29T10:13:49.615Z,982.15
2022-09-29T10:14:49.626Z,982.08
2022-09-29T10:15:49.554Z,982.09
2022-09-29T10:16:49.614Z,982.09
2022-09-29T10:17:49.545Z,982.10
2022-09-29T10:18:50.505Z,982.09
2022-09-29T10:19:49.484Z,982.10
2022-09-29T10:20:49.498Z,982.06
2022-09-29T10:21:49.555Z,982.09
2022-09-29T10:22:51.748Z,982.17
2022-09-29T10:23:49.399Z,982.20
2022-09-29T10:24:49.393Z,982.11
2022-09-29T10:25:49.416Z,982.14
2022-09-29T10:26:49.528Z,982.18
2022-09-29T10:27:49.517Z,982.12
2022-09-29T10:28:49.511Z,982.16
2022-09-29T10:29:49.538Z,982.12
2022-09-29T10:30:49.595Z,982.10
2022-09-29T10:31:49.568Z,982.16
2022-09-29T10:32:49.478Z,982.12
2022-09-29T10:33:49.604Z,982.12
2022-09-29T10:34:49.493Z,982.09
2022-09-29T10:35:49.465Z,982.11
2022-09-29T10:36:49.497Z,982.10
2022-09-29T10:37:49.453Z,982.13
2022-09-29T10:38:49.408Z,982.16
2022-09-29T10:39:49.412Z,982.11
2022-09-29T10:40:49.413Z,982.16
2022-09-29T10:41:49.678Z,982.15
2022-09-29T10:42:49.438Z,982.18
2022-09-29T10:43:49.449Z,982.19
2022-09-29T10:44:49.423Z,982.15
2022-09-29T10:45:49.451Z,982.07
2022-09-29T10:46:49.370Z,982.15
2022-09-29T10:47:49.432Z,982.18
2022-09-29T10:48:49.350Z,982.12
2022-09-29T10:49:49.236Z,982.15
2022-09-29T10:50:49.243Z,982.22
2022-09-29T10:51:49.328Z,982.15
2022-09-29T10:52:49.287Z,982.20
2022-09-29T10:53:49.219Z,982.18
2022-09-29T10:54:49.210Z,982.26
2022-09-29T10:55:49.260Z,982.17
2022-09-29T10:56:49.224Z,982.21
2022-09-29T10:57:49.360Z,982.19
2022-09-29T10:59:06.206Z,982.16
2022-09-29T10:59:51.195Z,982.17
2022-09-29T11:00:49.259Z,982.16
2022-09-29T11:01:49.268Z,982.16
2022-09-29T11:02:49.269Z,982.19
2022-09-29T11:03:49.329Z,982.23
2022-09-29T11:04:49.281Z,982.26
2022-09-29T11:05:49.240Z,982.22
2022-09-29T11:06:49.223Z,982.21
2022-09-29T11:07:49.306Z,982.21
2022-09-29T11:08:49.362Z,982.19
2022-09-29T11:09:49.235Z,982.23
2022-09-29T11:10:49.234Z,982.15
2022-09-29T11:11:49.305Z,982.24
2022-09-29T11:12:49.204Z,982.32
2022-09-29T11:13:49.200Z,982.21
2022-09-29T11:14:49.136Z,982.33
2022-09-29T11:15:49.097Z,982.25
2022-09-29T11:16:49.218Z,982.26
2022-09-29T11:17:49.202Z,982.35
2022-09-29T11:18:49.127Z,982.28
2022-09-29T11:19:49.262Z,982.28
2022-09-29T11:20:49.132Z,982.20
2022-09-29T11:21:49.172Z,982.20
2022-09-29T11:22:49.185Z,982.25
2022-09-29T11:23:49.151Z,982.21
2022-09-29T11:24:49.126Z,982.23
2022-09-29T11:25:49.195Z,982.26
2022-09-29T11:26:49.130Z,982.26
2022-09-29T11:27:49.115Z,982.22
2022-09-29T11:28:49.172Z,982.17
2022-09-29T11:29:49.177Z,982.18
2022-09-29T11:30:49.198Z,982.21
2022-09-29T11:31:49.159Z,982.20
2022-09-29T11:32:49.094Z,982.24
2022-09-29T11:33:49.092Z,982.24
2022-09-29T11:34:49.049Z,982.24
2022-09-29T11:35:49.102Z,982.27
2022-09-29T11:36:49.162Z,982.25
2022-09-29T11:37:48.964Z,982.32
2022-09-29T11:38:48.903Z,982.29
2022-09-29T11:39:49.034Z,982.21
2022-09-29T11:40:48.925Z,982.22
2022-09-29T11:41:49.061Z,982.22
2022-09-29T11:42:49.068Z,982.20
2022-09-29T11:43:49.326Z,982.22
2022-09-29T11:44:49.001Z,982.19
2022-09-29T11:45:49.030Z,982.21
2022-09-29T11:46:49.425Z,982.20
2022-09-29T11:47:48.944Z,982.30
2022-09-29T11:48:48.992Z,982.20
2022-09-29T11:49:48.857Z,982.24
2022-09-29T11:50:48.901Z,982.19
2022-09-29T11:51:48.915Z,982.19
2022-09-29T11:52:48.961Z,982.14
2022-09-29T11:53:48.797Z,982.18
2022-09-29T11:54:48.798Z,982.16
2022-09-29T11:55:48.842Z,982.20
2022-09-29T11:56:48.798Z,982.19
2022-09-29T11:57:48.883Z,982.14
2022-09-29T11:58:48.778Z,982.16
2022-09-29T11:59:48.772Z,982.12
2022-09-29T12:00:48.743Z,982.07
2022-09-29T12:01:48.735Z,982.17
2022-09-29T12:02:48.902Z,982.12
2022-09-29T12:03:48.875Z,982.13
2022-09-29T12:04:48.824Z,982.14
2022-09-29T12:05:48.832Z,982.11
2022-09-29T12:06:48.763Z,982.07
2022-09-29T12:07:48.802Z,982.08
2022-09-29T12:08:48.805Z,982.03
2022-09-29T12:09:48.763Z,982.11
2022-09-29T12:10:48.751Z,982.05
2022-09-29T12:12:05.311Z,982.07
2022-09-29T12:12:50.708Z,982.06
2022-09-29T12:13:49.815Z,982.08
2022-09-29T12:14:48.722Z,982.09
2022-09-29T12:15:48.731Z,982.03
2022-09-29T12:16:48.691Z,981.99
2022-09-29T12:17:48.600Z,982.04
2022-09-29T12:18:48.765Z,982.00
2022-09-29T12:19:48.733Z,982.05
2022-09-29T12:20:48.659Z,982.08
2022-09-29T13:37:02.411Z,982.07
2022-09-29T13:38:03.340Z,982.04
2022-09-29T13:39:03.301Z,982.06
2022-09-29T13:40:05.460Z,981.99
2022-09-29T13:41:03.241Z,982.02
2022-09-29T13:42:03.260Z,982.05
2022-09-29T13:43:03.237Z,982.08
2022-09-29T13:44:03.211Z,981.95